sensor_id;sensor_type;location;lat;lon;timestamp;P1;durP1;ratioP1;P2;durP2;ratioP2
47555;SDS011;33291;46.222;26.460;2023-09-19T00:01:40;14.68;;;5.07;;
47555;SDS011;33291;46.222;26.460;2023-09-19T00:04:07;11.88;;;5.05;;
47555;SDS011;33291;46.222;26.460;2023-09-19T00:06:35;11.18;;;5.63;;
47555;SDS011;33291;46.222;26.460;2023-09-19T00:09:01;10.82;;;5.68;;
47555;SDS011;33291;46.222;26.460;2023-09-19T00:11:27;8.02;;;5.20;;
47555;SDS011;33291;46.222;26.460;2023-09-19T00:13:54;8.18;;;5.45;;
47555;SDS011;33291;46.222;26.460;2023-09-19T00:16:19;8.75;;;5.82;;
47555;SDS011;33291;46.222;26.460;2023-09-19T00:18:45;6.70;;;5.30;;
47555;SDS011;33291;46.222;26.460;2023-09-19T00:21:11;9.50;;;5.88;;
47555;SDS011;33291;46.222;26.460;2023-09-19T00:23:37;14.23;;;5.78;;
47555;SDS011;33291;46.222;26.460;2023-09-19T00:26:03;7.82;;;5.93;;
47555;SDS011;33291;46.222;26.460;2023-09-19T00:28:29;7.28;;;4.68;;
47555;SDS011;33291;46.222;26.460;2023-09-19T00:30:55;9.77;;;5.43;;
47555;SDS011;33291;46.222;26.460;2023-09-19T00:33:21;9.43;;;5.45;;
47555;SDS011;33291;46.222;26.460;2023-09-19T00:35:53;7.00;;;5.40;;
47555;SDS011;33291;46.222;26.460;2023-09-19T00:38:20;9.90;;;5.70;;
47555;SDS011;33291;46.222;26.460;2023-09-19T00:40:48;7.63;;;5.18;;
47555;SDS011;33291;46.222;26.460;2023-09-19T00:43:16;8.40;;;5.00;;
47555;SDS011;33291;46.222;26.460;2023-09-19T00:45:43;9.25;;;5.53;;
47555;SDS011;33291;46.222;26.460;2023-09-19T00:48:13;10.45;;;5.50;;
47555;SDS011;33291;46.222;26.460;2023-09-19T00:50:39;9.60;;;5.50;;
47555;SDS011;33291;46.222;26.460;2023-09-19T00:53:07;12.45;;;6.05;;
47555;SDS011;33291;46.222;26.460;2023-09-19T00:55:38;12.35;;;5.35;;
47555;SDS011;33291;46.222;26.460;2023-09-19T00:58:04;7.70;;;4.82;;
47555;SDS011;33291;46.222;26.460;2023-09-19T01:00:33;13.60;;;6.07;;
47555;SDS011;33291;46.222;26.460;2023-09-19T01:03:01;12.05;;;4.97;;
47555;SDS011;33291;46.222;26.460;2023-09-19T01:05:28;7.60;;;5.60;;
47555;SDS011;33291;46.222;26.460;2023-09-19T01:07:54;9.25;;;6.25;;
47555;SDS011;33291;46.222;26.460;2023-09-19T01:10:20;8.23;;;5.40;;
47555;SDS011;33291;46.222;26.460;2023-09-19T01:21:08;10.70;;;5.70;;
47555;SDS011;33291;46.222;26.460;2023-09-19T01:26:45;6.88;;;5.50;;
47555;SDS011;33291;46.222;26.460;2023-09-19T01:31:54;9.52;;;5.57;;
47555;SDS011;33291;46.222;26.460;2023-09-19T01:34:26;6.85;;;5.25;;
47555;SDS011;33291;46.222;26.460;2023-09-19T01:36:52;9.80;;;5.07;;
47555;SDS011;33291;46.222;26.460;2023-09-19T01:39:17;9.02;;;6.22;;
47555;SDS011;33291;46.222;26.460;2023-09-19T01:47:33;12.68;;;5.50;;
47555;SDS011;33291;46.222;26.460;2023-09-19T01:52:51;11.55;;;5.43;;
47555;SDS011;33291;46.222;26.460;2023-09-19T01:55:23;10.30;;;5.55;;
47555;SDS011;33291;46.222;26.460;2023-09-19T01:58:07;8.13;;;5.57;;
47555;SDS011;33291;46.222;26.460;2023-09-19T02:00:40;15.00;;;5.85;;
47555;SDS011;33291;46.222;26.460;2023-09-19T02:03:08;8.38;;;6.05;;
47555;SDS011;33291;46.222;26.460;2023-09-19T02:05:35;12.27;;;6.43;;
47555;SDS011;33291;46.222;26.460;2023-09-19T02:08:00;10.38;;;6.30;;
47555;SDS011;33291;46.222;26.460;2023-09-19T02:10:26;10.63;;;5.63;;
47555;SDS011;33291;46.222;26.460;2023-09-19T02:12:52;7.63;;;5.40;;
47555;SDS011;33291;46.222;26.460;2023-09-19T02:15:17;8.60;;;5.70;;
47555;SDS011;33291;46.222;26.460;2023-09-19T02:17:43;12.10;;;6.78;;
47555;SDS011;33291;46.222;26.460;2023-09-19T02:20:12;9.70;;;6.22;;
47555;SDS011;33291;46.222;26.460;2023-09-19T02:22:40;11.38;;;5.97;;
47555;SDS011;33291;46.222;26.460;2023-09-19T02:25:09;12.60;;;5.78;;
47555;SDS011;33291;46.222;26.460;2023-09-19T02:27:34;7.80;;;5.38;;
47555;SDS011;33291;46.222;26.460;2023-09-19T02:30:00;9.75;;;5.65;;
47555;SDS011;33291;46.222;26.460;2023-09-19T02:32:29;13.18;;;5.82;;
47555;SDS011;33291;46.222;26.460;2023-09-19T02:34:56;12.75;;;6.32;;
47555;SDS011;33291;46.222;26.460;2023-09-19T02:37:23;9.30;;;5.85;;
47555;SDS011;33291;46.222;26.460;2023-09-19T02:39:49;9.98;;;5.97;;
47555;SDS011;33291;46.222;26.460;2023-09-19T02:42:14;7.80;;;6.03;;
47555;SDS011;33291;46.222;26.460;2023-09-19T02:44:40;10.00;;;5.43;;
47555;SDS011;33291;46.222;26.460;2023-09-19T02:47:05;10.00;;;5.50;;
47555;SDS011;33291;46.222;26.460;2023-09-19T02:49:31;6.40;;;5.07;;
47555;SDS011;33291;46.222;26.460;2023-09-19T02:51:56;8.75;;;6.50;;
47555;SDS011;33291;46.222;26.460;2023-09-19T02:54:23;11.32;;;5.32;;
47555;SDS011;33291;46.222;26.460;2023-09-19T02:56:49;10.32;;;5.55;;
47555;SDS011;33291;46.222;26.460;2023-09-19T02:59:14;7.60;;;5.38;;
47555;SDS011;33291;46.222;26.460;2023-09-19T03:01:42;7.68;;;5.07;;
47555;SDS011;33291;46.222;26.460;2023-09-19T03:04:08;13.30;;;6.45;;
47555;SDS011;33291;46.222;26.460;2023-09-19T03:06:36;8.07;;;5.72;;
47555;SDS011;33291;46.222;26.460;2023-09-19T03:09:02;12.35;;;6.22;;
47555;SDS011;33291;46.222;26.460;2023-09-19T03:11:31;14.95;;;6.63;;
47555;SDS011;33291;46.222;26.460;2023-09-19T03:13:56;12.35;;;5.53;;
47555;SDS011;33291;46.222;26.460;2023-09-19T03:16:22;9.77;;;5.63;;
47555;SDS011;33291;46.222;26.460;2023-09-19T03:18:50;13.10;;;7.65;;
47555;SDS011;33291;46.222;26.460;2023-09-19T03:21:16;9.93;;;6.53;;
47555;SDS011;33291;46.222;26.460;2023-09-19T03:23:42;14.05;;;6.35;;
47555;SDS011;33291;46.222;26.460;2023-09-19T03:26:10;7.78;;;5.40;;
47555;SDS011;33291;46.222;26.460;2023-09-19T03:28:42;10.05;;;5.75;;
47555;SDS011;33291;46.222;26.460;2023-09-19T03:31:08;7.47;;;5.68;;
47555;SDS011;33291;46.222;26.460;2023-09-19T03:33:34;9.27;;;5.43;;
47555;SDS011;33291;46.222;26.460;2023-09-19T03:36:00;9.60;;;5.30;;
47555;SDS011;33291;46.222;26.460;2023-09-19T03:38:29;8.50;;;5.85;;
47555;SDS011;33291;46.222;26.460;2023-09-19T03:40:55;10.23;;;6.13;;
47555;SDS011;33291;46.222;26.460;2023-09-19T03:43:21;13.27;;;6.18;;
47555;SDS011;33291;46.222;26.460;2023-09-19T03:45:46;15.48;;;6.65;;
47555;SDS011;33291;46.222;26.460;2023-09-19T03:48:12;11.95;;;6.75;;
47555;SDS011;33291;46.222;26.460;2023-09-19T03:50:38;10.43;;;7.05;;
47555;SDS011;33291;46.222;26.460;2023-09-19T03:53:05;10.55;;;6.60;;
47555;SDS011;33291;46.222;26.460;2023-09-19T03:55:32;6.93;;;5.90;;
47555;SDS011;33291;46.222;26.460;2023-09-19T03:58:00;10.02;;;5.95;;
47555;SDS011;33291;46.222;26.460;2023-09-19T04:00:26;8.63;;;5.45;;
47555;SDS011;33291;46.222;26.460;2023-09-19T04:02:52;8.82;;;6.10;;
47555;SDS011;33291;46.222;26.460;2023-09-19T04:05:18;11.57;;;6.55;;
47555;SDS011;33291;46.222;26.460;2023-09-19T04:07:44;16.33;;;7.20;;
47555;SDS011;33291;46.222;26.460;2023-09-19T04:10:09;9.30;;;7.10;;
47555;SDS011;33291;46.222;26.460;2023-09-19T04:12:36;10.80;;;6.43;;
47555;SDS011;33291;46.222;26.460;2023-09-19T04:15:02;10.93;;;6.82;;
47555;SDS011;33291;46.222;26.460;2023-09-19T04:17:28;12.20;;;6.57;;
47555;SDS011;33291;46.222;26.460;2023-09-19T04:19:53;11.05;;;5.93;;
47555;SDS011;33291;46.222;26.460;2023-09-19T04:22:19;17.15;;;7.72;;
47555;SDS011;33291;46.222;26.460;2023-09-19T04:24:44;21.00;;;6.88;;
47555;SDS011;33291;46.222;26.460;2023-09-19T04:27:10;11.23;;;6.82;;
47555;SDS011;33291;46.222;26.460;2023-09-19T04:29:37;7.95;;;6.00;;
47555;SDS011;33291;46.222;26.460;2023-09-19T04:32:03;11.75;;;6.50;;
47555;SDS011;33291;46.222;26.460;2023-09-19T04:34:31;10.25;;;6.25;;
47555;SDS011;33291;46.222;26.460;2023-09-19T04:36:56;10.93;;;7.05;;
47555;SDS011;33291;46.222;26.460;2023-09-19T04:39:23;14.15;;;7.10;;
47555;SDS011;33291;46.222;26.460;2023-09-19T04:41:51;8.02;;;5.78;;
47555;SDS011;33291;46.222;26.460;2023-09-19T04:44:16;12.35;;;6.40;;
47555;SDS011;33291;46.222;26.460;2023-09-19T04:46:43;9.85;;;6.32;;
47555;SDS011;33291;46.222;26.460;2023-09-19T04:49:09;15.52;;;7.47;;
47555;SDS011;33291;46.222;26.460;2023-09-19T04:51:35;11.77;;;8.05;;
47555;SDS011;33291;46.222;26.460;2023-09-19T04:54:01;9.20;;;6.88;;
47555;SDS011;33291;46.222;26.460;2023-09-19T04:56:28;10.75;;;7.32;;
47555;SDS011;33291;46.222;26.460;2023-09-19T04:58:57;13.60;;;6.57;;
47555;SDS011;33291;46.222;26.460;2023-09-19T05:01:23;13.43;;;7.55;;
47555;SDS011;33291;46.222;26.460;2023-09-19T05:03:49;10.30;;;6.95;;
47555;SDS011;33291;46.222;26.460;2023-09-19T05:06:19;13.65;;;7.45;;
47555;SDS011;33291;46.222;26.460;2023-09-19T05:08:48;13.82;;;6.93;;
47555;SDS011;33291;46.222;26.460;2023-09-19T05:11:20;13.55;;;7.28;;
47555;SDS011;33291;46.222;26.460;2023-09-19T05:13:47;13.63;;;7.78;;
47555;SDS011;33291;46.222;26.460;2023-09-19T05:16:14;15.90;;;8.80;;
47555;SDS011;33291;46.222;26.460;2023-09-19T05:18:41;13.80;;;8.57;;
47555;SDS011;33291;46.222;26.460;2023-09-19T05:21:07;16.67;;;8.02;;
47555;SDS011;33291;46.222;26.460;2023-09-19T05:23:33;11.70;;;7.05;;
47555;SDS011;33291;46.222;26.460;2023-09-19T05:25:58;16.85;;;7.40;;
47555;SDS011;33291;46.222;26.460;2023-09-19T05:28:25;9.75;;;7.68;;
47555;SDS011;33291;46.222;26.460;2023-09-19T05:30:52;13.00;;;8.15;;
47555;SDS011;33291;46.222;26.460;2023-09-19T05:33:18;10.82;;;8.10;;
47555;SDS011;33291;46.222;26.460;2023-09-19T05:35:44;12.13;;;8.43;;
47555;SDS011;33291;46.222;26.460;2023-09-19T05:38:13;20.27;;;8.10;;
47555;SDS011;33291;46.222;26.460;2023-09-19T05:40:39;13.13;;;8.18;;
47555;SDS011;33291;46.222;26.460;2023-09-19T05:43:09;14.88;;;8.02;;
47555;SDS011;33291;46.222;26.460;2023-09-19T05:45:34;10.15;;;8.02;;
47555;SDS011;33291;46.222;26.460;2023-09-19T05:48:11;11.45;;;7.07;;
47555;SDS011;33291;46.222;26.460;2023-09-19T05:50:38;9.35;;;7.20;;
47555;SDS011;33291;46.222;26.460;2023-09-19T05:53:04;9.55;;;6.75;;
47555;SDS011;33291;46.222;26.460;2023-09-19T05:55:30;17.83;;;8.82;;
47555;SDS011;33291;46.222;26.460;2023-09-19T05:57:55;8.60;;;6.75;;
47555;SDS011;33291;46.222;26.460;2023-09-19T06:00:22;12.43;;;7.72;;
47555;SDS011;33291;46.222;26.460;2023-09-19T06:02:51;10.95;;;6.82;;
47555;SDS011;33291;46.222;26.460;2023-09-19T06:05:18;10.20;;;7.53;;
47555;SDS011;33291;46.222;26.460;2023-09-19T06:07:44;9.25;;;7.22;;
47555;SDS011;33291;46.222;26.460;2023-09-19T06:10:09;10.85;;;7.15;;
47555;SDS011;33291;46.222;26.460;2023-09-19T06:12:53;18.23;;;7.03;;
47555;SDS011;33291;46.222;26.460;2023-09-19T06:15:20;13.13;;;7.50;;
47555;SDS011;33291;46.222;26.460;2023-09-19T06:17:49;12.25;;;5.97;;
47555;SDS011;33291;46.222;26.460;2023-09-19T06:20:17;15.35;;;7.85;;
47555;SDS011;33291;46.222;26.460;2023-09-19T06:22:45;13.05;;;7.50;;
47555;SDS011;33291;46.222;26.460;2023-09-19T06:25:11;12.20;;;7.57;;
47555;SDS011;33291;46.222;26.460;2023-09-19T06:27:40;14.85;;;6.93;;
47555;SDS011;33291;46.222;26.460;2023-09-19T06:30:09;8.73;;;6.55;;
47555;SDS011;33291;46.222;26.460;2023-09-19T06:32:36;9.27;;;6.63;;
47555;SDS011;33291;46.222;26.460;2023-09-19T06:35:02;11.63;;;7.63;;
47555;SDS011;33291;46.222;26.460;2023-09-19T06:37:29;12.45;;;7.78;;
47555;SDS011;33291;46.222;26.460;2023-09-19T06:39:55;10.85;;;7.60;;
47555;SDS011;33291;46.222;26.460;2023-09-19T06:42:22;9.75;;;7.20;;
47555;SDS011;33291;46.222;26.460;2023-09-19T06:44:48;17.40;;;8.13;;
47555;SDS011;33291;46.222;26.460;2023-09-19T06:47:14;18.13;;;7.63;;
47555;SDS011;33291;46.222;26.460;2023-09-19T06:49:42;15.98;;;7.40;;
47555;SDS011;33291;46.222;26.460;2023-09-19T06:52:10;18.63;;;7.53;;
47555;SDS011;33291;46.222;26.460;2023-09-19T06:54:36;10.50;;;6.63;;
47555;SDS011;33291;46.222;26.460;2023-09-19T06:57:02;8.60;;;6.93;;
47555;SDS011;33291;46.222;26.460;2023-09-19T06:59:28;7.95;;;6.00;;
47555;SDS011;33291;46.222;26.460;2023-09-19T07:01:53;13.65;;;7.07;;
47555;SDS011;33291;46.222;26.460;2023-09-19T07:04:19;13.27;;;6.55;;
47555;SDS011;33291;46.222;26.460;2023-09-19T07:06:49;12.07;;;7.20;;
47555;SDS011;33291;46.222;26.460;2023-09-19T07:09:15;9.75;;;6.25;;
47555;SDS011;33291;46.222;26.460;2023-09-19T07:11:41;10.70;;;6.25;;
47555;SDS011;33291;46.222;26.460;2023-09-19T07:14:07;11.25;;;6.45;;
47555;SDS011;33291;46.222;26.460;2023-09-19T07:16:36;13.38;;;7.00;;
47555;SDS011;33291;46.222;26.460;2023-09-19T07:19:03;10.93;;;7.22;;
47555;SDS011;33291;46.222;26.460;2023-09-19T07:21:29;12.52;;;6.25;;
47555;SDS011;33291;46.222;26.460;2023-09-19T07:23:55;13.93;;;6.63;;
47555;SDS011;33291;46.222;26.460;2023-09-19T07:26:20;17.70;;;7.57;;
47555;SDS011;33291;46.222;26.460;2023-09-19T07:28:46;14.93;;;6.78;;
47555;SDS011;33291;46.222;26.460;2023-09-19T07:31:11;20.08;;;6.75;;
47555;SDS011;33291;46.222;26.460;2023-09-19T07:33:39;16.48;;;7.95;;
47555;SDS011;33291;46.222;26.460;2023-09-19T07:36:05;14.55;;;6.97;;
47555;SDS011;33291;46.222;26.460;2023-09-19T07:38:31;11.85;;;7.25;;
47555;SDS011;33291;46.222;26.460;2023-09-19T07:41:01;7.65;;;6.43;;
47555;SDS011;33291;46.222;26.460;2023-09-19T07:43:27;12.15;;;6.80;;
47555;SDS011;33291;46.222;26.460;2023-09-19T07:45:53;9.95;;;6.80;;
47555;SDS011;33291;46.222;26.460;2023-09-19T07:48:18;14.30;;;7.20;;
47555;SDS011;33291;46.222;26.460;2023-09-19T07:50:44;15.90;;;9.40;;
47555;SDS011;33291;46.222;26.460;2023-09-19T07:53:09;18.27;;;10.27;;
47555;SDS011;33291;46.222;26.460;2023-09-19T07:55:38;10.68;;;8.02;;
47555;SDS011;33291;46.222;26.460;2023-09-19T07:58:04;12.25;;;7.00;;
47555;SDS011;33291;46.222;26.460;2023-09-19T08:00:32;12.40;;;6.85;;
47555;SDS011;33291;46.222;26.460;2023-09-19T08:02:59;8.75;;;6.13;;
47555;SDS011;33291;46.222;26.460;2023-09-19T08:05:26;10.02;;;6.07;;
47555;SDS011;33291;46.222;26.460;2023-09-19T08:07:52;11.10;;;6.55;;
47555;SDS011;33291;46.222;26.460;2023-09-19T08:10:18;10.60;;;6.47;;
47555;SDS011;33291;46.222;26.460;2023-09-19T08:12:45;8.75;;;6.20;;
47555;SDS011;33291;46.222;26.460;2023-09-19T08:15:15;8.90;;;6.60;;
47555;SDS011;33291;46.222;26.460;2023-09-19T08:17:41;12.55;;;7.57;;
47555;SDS011;33291;46.222;26.460;2023-09-19T08:20:08;10.20;;;7.05;;
47555;SDS011;33291;46.222;26.460;2023-09-19T08:22:47;13.93;;;6.82;;
47555;SDS011;33291;46.222;26.460;2023-09-19T08:25:15;10.65;;;6.45;;
47555;SDS011;33291;46.222;26.460;2023-09-19T08:27:47;16.52;;;6.32;;
47555;SDS011;33291;46.222;26.460;2023-09-19T08:30:18;9.40;;;6.18;;
47555;SDS011;33291;46.222;26.460;2023-09-19T08:32:49;8.32;;;6.40;;
47555;SDS011;33291;46.222;26.460;2023-09-19T08:35:23;11.52;;;6.28;;
47555;SDS011;33291;46.222;26.460;2023-09-19T08:37:48;14.52;;;6.40;;
47555;SDS011;33291;46.222;26.460;2023-09-19T08:40:14;7.47;;;5.68;;
47555;SDS011;33291;46.222;26.460;2023-09-19T08:42:52;13.10;;;6.43;;
47555;SDS011;33291;46.222;26.460;2023-09-19T08:45:20;7.82;;;5.40;;
47555;SDS011;33291;46.222;26.460;2023-09-19T08:47:56;9.57;;;6.13;;
47555;SDS011;33291;46.222;26.460;2023-09-19T08:50:26;10.88;;;5.95;;
47555;SDS011;33291;46.222;26.460;2023-09-19T08:52:53;9.70;;;6.07;;
47555;SDS011;33291;46.222;26.460;2023-09-19T08:55:26;9.13;;;6.03;;
47555;SDS011;33291;46.222;26.460;2023-09-19T08:57:57;9.77;;;6.03;;
47555;SDS011;33291;46.222;26.460;2023-09-19T09:00:29;6.97;;;6.25;;
47555;SDS011;33291;46.222;26.460;2023-09-19T09:02:56;8.73;;;5.90;;
47555;SDS011;33291;46.222;26.460;2023-09-19T09:05:23;7.55;;;6.32;;
47555;SDS011;33291;46.222;26.460;2023-09-19T09:07:50;9.15;;;6.65;;
47555;SDS011;33291;46.222;26.460;2023-09-19T09:10:21;9.43;;;6.55;;
47555;SDS011;33291;46.222;26.460;2023-09-19T09:12:51;7.25;;;5.70;;
47555;SDS011;33291;46.222;26.460;2023-09-19T09:15:27;8.35;;;6.55;;
47555;SDS011;33291;46.222;26.460;2023-09-19T09:17:54;10.57;;;5.70;;
47555;SDS011;33291;46.222;26.460;2023-09-19T09:20:20;9.38;;;5.53;;
47555;SDS011;33291;46.222;26.460;2023-09-19T09:22:52;9.00;;;6.30;;
47555;SDS011;33291;46.222;26.460;2023-09-19T09:25:20;10.55;;;5.80;;
47555;SDS011;33291;46.222;26.460;2023-09-19T09:27:59;14.90;;;6.07;;
47555;SDS011;33291;46.222;26.460;2023-09-19T09:30:33;10.02;;;5.38;;
47555;SDS011;33291;46.222;26.460;2023-09-19T09:33:09;16.33;;;6.18;;
47555;SDS011;33291;46.222;26.460;2023-09-19T09:35:37;8.18;;;6.00;;
47555;SDS011;33291;46.222;26.460;2023-09-19T09:38:12;8.85;;;5.65;;
47555;SDS011;33291;46.222;26.460;2023-09-19T09:40:48;7.55;;;5.78;;
47555;SDS011;33291;46.222;26.460;2023-09-19T09:43:38;8.82;;;5.30;;
47555;SDS011;33291;46.222;26.460;2023-09-19T09:46:09;11.63;;;5.75;;
47555;SDS011;33291;46.222;26.460;2023-09-19T09:48:44;9.30;;;5.40;;
47555;SDS011;33291;46.222;26.460;2023-09-19T09:51:30;8.02;;;5.95;;
47555;SDS011;33291;46.222;26.460;2023-09-19T09:54:09;22.13;;;5.70;;
47555;SDS011;33291;46.222;26.460;2023-09-19T09:56:51;7.25;;;5.47;;
47555;SDS011;33291;46.222;26.460;2023-09-19T10:02:43;11.38;;;5.30;;
47555;SDS011;33291;46.222;26.460;2023-09-19T10:05:12;9.23;;;5.05;;
47555;SDS011;33291;46.222;26.460;2023-09-19T10:07:45;7.75;;;5.72;;
47555;SDS011;33291;46.222;26.460;2023-09-19T10:10:31;12.48;;;5.55;;
47555;SDS011;33291;46.222;26.460;2023-09-19T10:13:08;7.78;;;5.93;;
47555;SDS011;33291;46.222;26.460;2023-09-19T10:15:39;10.52;;;5.50;;
47555;SDS011;33291;46.222;26.460;2023-09-19T10:18:11;8.57;;;5.78;;
47555;SDS011;33291;46.222;26.460;2023-09-19T10:20:43;8.73;;;5.63;;
47555;SDS011;33291;46.222;26.460;2023-09-19T10:23:11;7.43;;;5.00;;
47555;SDS011;33291;46.222;26.460;2023-09-19T10:25:41;7.18;;;5.40;;
47555;SDS011;33291;46.222;26.460;2023-09-19T10:28:10;9.88;;;5.68;;
47555;SDS011;33291;46.222;26.460;2023-09-19T10:30:38;7.85;;;5.00;;
47555;SDS011;33291;46.222;26.460;2023-09-19T10:33:08;7.70;;;5.75;;
47555;SDS011;33291;46.222;26.460;2023-09-19T10:35:34;6.30;;;5.28;;
47555;SDS011;33291;46.222;26.460;2023-09-19T10:38:06;15.88;;;5.25;;
47555;SDS011;33291;46.222;26.460;2023-09-19T10:40:33;9.55;;;5.00;;
47555;SDS011;33291;46.222;26.460;2023-09-19T10:43:04;8.63;;;5.43;;
47555;SDS011;33291;46.222;26.460;2023-09-19T10:45:33;8.13;;;5.95;;
47555;SDS011;33291;46.222;26.460;2023-09-19T10:48:01;7.38;;;5.30;;
47555;SDS011;33291;46.222;26.460;2023-09-19T10:50:32;8.20;;;5.78;;
47555;SDS011;33291;46.222;26.460;2023-09-19T10:53:02;11.07;;;5.82;;
47555;SDS011;33291;46.222;26.460;2023-09-19T10:55:32;9.95;;;5.47;;
47555;SDS011;33291;46.222;26.460;2023-09-19T10:58:00;10.80;;;5.60;;
47555;SDS011;33291;46.222;26.460;2023-09-19T11:00:29;9.35;;;5.57;;
47555;SDS011;33291;46.222;26.460;2023-09-19T11:05:40;7.70;;;4.75;;
47555;SDS011;33291;46.222;26.460;2023-09-19T11:08:09;13.35;;;5.80;;
47555;SDS011;33291;46.222;26.460;2023-09-19T11:26:49;7.55;;;5.20;;
47555;SDS011;33291;46.222;26.460;2023-09-19T11:29:29;6.55;;;5.10;;
47555;SDS011;33291;46.222;26.460;2023-09-19T11:31:56;11.30;;;5.22;;
47555;SDS011;33291;46.222;26.460;2023-09-19T11:40:06;9.38;;;5.45;;
47555;SDS011;33291;46.222;26.460;2023-09-19T11:42:45;9.75;;;5.57;;
47555;SDS011;33291;46.222;26.460;2023-09-19T11:48:14;6.28;;;5.05;;
47555;SDS011;33291;46.222;26.460;2023-09-19T11:50:43;8.75;;;5.90;;
47555;SDS011;33291;46.222;26.460;2023-09-19T11:53:10;12.20;;;5.10;;
47555;SDS011;33291;46.222;26.460;2023-09-19T11:55:37;7.65;;;5.30;;
47555;SDS011;33291;46.222;26.460;2023-09-19T11:58:04;8.82;;;5.13;;
47555;SDS011;33291;46.222;26.460;2023-09-19T12:00:33;11.77;;;6.18;;
47555;SDS011;33291;46.222;26.460;2023-09-19T12:03:01;12.00;;;5.20;;
47555;SDS011;33291;46.222;26.460;2023-09-19T12:05:34;9.35;;;5.55;;
47555;SDS011;33291;46.222;26.460;2023-09-19T12:08:00;8.00;;;5.40;;
47555;SDS011;33291;46.222;26.460;2023-09-19T12:10:26;6.97;;;4.80;;
47555;SDS011;33291;46.222;26.460;2023-09-19T12:12:52;9.57;;;6.90;;
47555;SDS011;33291;46.222;26.460;2023-09-19T12:15:24;7.50;;;5.78;;
47555;SDS011;33291;46.222;26.460;2023-09-19T12:17:59;9.25;;;5.85;;
47555;SDS011;33291;46.222;26.460;2023-09-19T12:20:25;7.72;;;5.82;;
47555;SDS011;33291;46.222;26.460;2023-09-19T12:22:50;10.80;;;5.97;;
47555;SDS011;33291;46.222;26.460;2023-09-19T12:25:16;11.55;;;5.15;;
47555;SDS011;33291;46.222;26.460;2023-09-19T12:27:45;7.90;;;5.45;;
47555;SDS011;33291;46.222;26.460;2023-09-19T12:30:17;11.00;;;6.10;;
47555;SDS011;33291;46.222;26.460;2023-09-19T12:32:44;8.63;;;5.78;;
47555;SDS011;33291;46.222;26.460;2023-09-19T12:35:26;9.13;;;5.40;;
47555;SDS011;33291;46.222;26.460;2023-09-19T12:38:04;10.35;;;6.20;;
47555;SDS011;33291;46.222;26.460;2023-09-19T12:40:31;8.32;;;5.25;;
47555;SDS011;33291;46.222;26.460;2023-09-19T12:42:58;15.20;;;5.10;;
47555;SDS011;33291;46.222;26.460;2023-09-19T12:45:27;9.98;;;5.90;;
47555;SDS011;33291;46.222;26.460;2023-09-19T12:51:03;7.50;;;5.53;;
47555;SDS011;33291;46.222;26.460;2023-09-19T12:53:44;6.88;;;5.63;;
47555;SDS011;33291;46.222;26.460;2023-09-19T12:56:14;8.13;;;5.53;;
47555;SDS011;33291;46.222;26.460;2023-09-19T12:58:52;9.93;;;5.88;;
47555;SDS011;33291;46.222;26.460;2023-09-19T13:01:20;8.90;;;6.38;;
47555;SDS011;33291;46.222;26.460;2023-09-19T13:04:09;11.73;;;6.25;;
47555;SDS011;33291;46.222;26.460;2023-09-19T13:06:55;10.75;;;5.80;;
47555;SDS011;33291;46.222;26.460;2023-09-19T13:09:25;11.48;;;5.95;;
47555;SDS011;33291;46.222;26.460;2023-09-19T13:12:00;9.85;;;5.05;;
47555;SDS011;33291;46.222;26.460;2023-09-19T13:14:28;7.57;;;5.28;;
47555;SDS011;33291;46.222;26.460;2023-09-19T13:17:06;7.20;;;5.38;;
47555;SDS011;33291;46.222;26.460;2023-09-19T13:19:45;11.75;;;5.90;;
47555;SDS011;33291;46.222;26.460;2023-09-19T13:25:16;14.30;;;6.37;;
47555;SDS011;33291;46.222;26.460;2023-09-19T13:27:43;9.48;;;5.80;;
47555;SDS011;33291;46.222;26.460;2023-09-19T13:30:28;11.82;;;5.90;;
47555;SDS011;33291;46.222;26.460;2023-09-19T13:33:05;9.35;;;6.20;;
47555;SDS011;33291;46.222;26.460;2023-09-19T13:35:33;12.18;;;7.38;;
47555;SDS011;33291;46.222;26.460;2023-09-19T13:37:58;9.70;;;5.80;;
47555;SDS011;33291;46.222;26.460;2023-09-19T13:40:24;8.82;;;5.65;;
47555;SDS011;33291;46.222;26.460;2023-09-19T13:42:52;10.43;;;6.03;;
47555;SDS011;33291;46.222;26.460;2023-09-19T13:45:18;9.63;;;6.25;;
47555;SDS011;33291;46.222;26.460;2023-09-19T13:47:47;7.63;;;6.28;;
47555;SDS011;33291;46.222;26.460;2023-09-19T13:50:12;11.98;;;6.63;;
47555;SDS011;33291;46.222;26.460;2023-09-19T13:52:38;8.45;;;6.65;;
47555;SDS011;33291;46.222;26.460;2023-09-19T13:55:03;11.00;;;6.63;;
47555;SDS011;33291;46.222;26.460;2023-09-19T13:57:31;11.02;;;6.28;;
47555;SDS011;33291;46.222;26.460;2023-09-19T13:59:58;13.32;;;6.93;;
47555;SDS011;33291;46.222;26.460;2023-09-19T14:02:24;11.23;;;6.85;;
47555;SDS011;33291;46.222;26.460;2023-09-19T14:04:50;9.95;;;6.43;;
47555;SDS011;33291;46.222;26.460;2023-09-19T14:07:16;9.85;;;6.63;;
47555;SDS011;33291;46.222;26.460;2023-09-19T14:09:43;10.48;;;8.07;;
47555;SDS011;33291;46.222;26.460;2023-09-19T14:12:09;9.00;;;7.05;;
47555;SDS011;33291;46.222;26.460;2023-09-19T14:14:35;13.43;;;7.15;;
47555;SDS011;33291;46.222;26.460;2023-09-19T14:17:02;11.05;;;6.70;;
47555;SDS011;33291;46.222;26.460;2023-09-19T14:19:28;14.82;;;9.27;;
47555;SDS011;33291;46.222;26.460;2023-09-19T14:21:53;13.60;;;8.45;;
47555;SDS011;33291;46.222;26.460;2023-09-19T14:24:20;12.52;;;7.15;;
47555;SDS011;33291;46.222;26.460;2023-09-19T14:26:47;14.30;;;6.97;;
47555;SDS011;33291;46.222;26.460;2023-09-19T14:29:13;10.55;;;6.35;;
47555;SDS011;33291;46.222;26.460;2023-09-19T14:31:39;12.48;;;6.53;;
47555;SDS011;33291;46.222;26.460;2023-09-19T14:34:05;15.77;;;7.20;;
47555;SDS011;33291;46.222;26.460;2023-09-19T14:36:30;12.02;;;8.35;;
47555;SDS011;33291;46.222;26.460;2023-09-19T14:38:56;9.95;;;8.20;;
47555;SDS011;33291;46.222;26.460;2023-09-19T14:41:22;18.45;;;8.25;;
47555;SDS011;33291;46.222;26.460;2023-09-19T14:43:48;12.48;;;9.00;;
47555;SDS011;33291;46.222;26.460;2023-09-19T14:46:14;13.05;;;7.88;;
47555;SDS011;33291;46.222;26.460;2023-09-19T14:48:41;17.13;;;7.90;;
47555;SDS011;33291;46.222;26.460;2023-09-19T14:51:07;16.35;;;9.23;;
47555;SDS011;33291;46.222;26.460;2023-09-19T14:53:36;9.68;;;7.47;;
47555;SDS011;33291;46.222;26.460;2023-09-19T14:56:03;12.98;;;7.65;;
47555;SDS011;33291;46.222;26.460;2023-09-19T14:58:30;13.93;;;7.38;;
47555;SDS011;33291;46.222;26.460;2023-09-19T15:01:05;13.88;;;7.90;;
47555;SDS011;33291;46.222;26.460;2023-09-19T15:03:32;13.85;;;7.07;;
47555;SDS011;33291;46.222;26.460;2023-09-19T15:06:02;10.93;;;6.65;;
47555;SDS011;33291;46.222;26.460;2023-09-19T15:08:30;11.95;;;7.55;;
47555;SDS011;33291;46.222;26.460;2023-09-19T15:10:56;11.88;;;7.85;;
47555;SDS011;33291;46.222;26.460;2023-09-19T15:13:23;15.35;;;7.25;;
47555;SDS011;33291;46.222;26.460;2023-09-19T15:15:57;13.75;;;7.95;;
47555;SDS011;33291;46.222;26.460;2023-09-19T15:18:30;14.43;;;7.72;;
47555;SDS011;33291;46.222;26.460;2023-09-19T15:21:00;13.90;;;8.13;;
47555;SDS011;33291;46.222;26.460;2023-09-19T15:23:26;14.57;;;8.05;;
47555;SDS011;33291;46.222;26.460;2023-09-19T15:25:51;19.92;;;7.80;;
47555;SDS011;33291;46.222;26.460;2023-09-19T15:28:18;16.98;;;7.75;;
47555;SDS011;33291;46.222;26.460;2023-09-19T15:30:47;18.13;;;8.60;;
47555;SDS011;33291;46.222;26.460;2023-09-19T15:33:13;15.75;;;8.57;;